Time;durP1;ratioP1;P1;durP2;ratioP2;P2;SDS_P1;SDS_P2;PMS_P1;PMS_P2;Temp;Humidity;BMP_temperature;BMP_pressure;BME280_temperature;BME280_humidity;BME280_pressure;Samples;Min_cycle;Max_cycle;Signal;HPM_P1;HPM_P2
2022/07/16 00:01:24;;;;;;;;;;;24.50;99.90;;;;;;5073127;28;19947;-71
2022/07/16 00:03:51;;;;;;;;;;;24.50;99.90;;;;;;5073251;28;19950;-71
2022/07/16 00:06:16;;;;;;;;;;;24.40;99.90;;;;;;5073116;28;20286;-71
2022/07/16 00:08:42;;;;;;;;;;;24.50;99.90;;;;;;5073217;28;20323;-71
2022/07/16 00:11:08;;;;;;;;;;;24.50;99.90;;;;;;5072840;28;19924;-71
2022/07/16 00:13:34;;;;;;;;;;;24.50;99.90;;;;;;5072452;28;19950;-71
2022/07/16 00:16:00;;;;;;;;;;;24.50;99.90;;;;;;5072723;28;20360;-71
2022/07/16 00:21:11;;;;;;;;;;;24.50;99.90;;;;;;5072981;28;20339;-70
2022/07/16 00:23:36;;;;;;;;;;;24.40;99.90;;;;;;5072965;28;19952;-70
2022/07/16 00:26:02;;;;;;;;;;;24.40;99.90;;;;;;5072634;28;20000;-71
2022/07/16 00:28:28;;;;;;;;;;;24.50;99.90;;;;;;5072641;28;19928;-70
2022/07/16 00:30:54;;;;;;;;;;;24.40;99.90;;;;;;5072481;28;20371;-71
2022/07/16 00:33:20;;;;;;;;;;;24.40;99.90;;;;;;5072513;28;19904;-71
2022/07/16 00:35:46;;;;;;;;;;;24.30;99.90;;;;;;5072279;28;19905;-70
2022/07/16 00:38:12;;;;;;;;;;;24.30;99.90;;;;;;5072499;28;19905;-70
2022/07/16 00:40:38;;;;;;;;;;;24.30;99.90;;;;;;5072704;28;20344;-71
2022/07/16 00:43:04;;;;;;;;;;;24.20;99.90;;;;;;5072527;28;19942;-71
2022/07/16 00:45:29;;;;;;;;;;;24.20;99.90;;;;;;5070821;28;20008;-70
2022/07/16 00:47:55;;;;;;;;;;;24.20;99.90;;;;;;5072556;28;20272;-71
2022/07/16 00:50:21;;;;;;;;;;;24.20;99.90;;;;;;5072549;28;20014;-70
2022/07/16 00:52:47;;;;;;;;;;;24.20;99.90;;;;;;5072139;28;19912;-70
2022/07/16 00:55:13;;;;;;;;;;;24.10;99.90;;;;;;5072113;28;19904;-72
2022/07/16 00:57:38;;;;;;;;;;;24.10;99.90;;;;;;5071965;28;20241;-70
2022/07/16 01:00:05;;;;;;;;;;;24.10;99.90;;;;;;5072283;28;19964;-70
2022/07/16 01:02:31;;;;;;;;;;;24.10;99.90;;;;;;5104405;28;19915;-70
2022/07/16 01:04:57;;;;;;;;;;;24.10;99.90;;;;;;5071917;28;19912;-71
2022/07/16 01:07:23;;;;;;;;;;;24.00;99.90;;;;;;5071725;28;19905;-70
2022/07/16 01:09:50;;;;;;;;;;;24.00;99.90;;;;;;5071718;28;19965;-70
2022/07/16 01:12:16;;;;;;;;;;;24.00;99.90;;;;;;5071804;28;20327;-70
2022/07/16 01:14:42;;;;;;;;;;;24.10;99.90;;;;;;5072055;28;19904;-70
2022/07/16 01:17:08;;;;;;;;;;;24.10;99.90;;;;;;5071841;28;19966;-72
2022/07/16 01:19:34;;;;;;;;;;;24.00;99.90;;;;;;5071686;28;20333;-70
2022/07/16 01:22:00;;;;;;;;;;;24.00;99.90;;;;;;5071658;28;20390;-70
2022/07/16 01:24:26;;;;;;;;;;;24.00;99.90;;;;;;5071696;28;19960;-70
2022/07/16 01:26:51;;;;;;;;;;;24.00;99.90;;;;;;5071658;28;19938;-70
2022/07/16 01:29:17;;;;;;;;;;;24.00;99.90;;;;;;5071721;28;19913;-70
2022/07/16 01:31:43;;;;;;;;;;;23.90;99.90;;;;;;5070190;28;20087;-70
2022/07/16 01:34:27;;;;;;;;;;;23.90;99.90;;;;;;5071532;28;20393;-70
2022/07/16 01:36:57;;;;;;;;;;;23.90;99.90;;;;;;5071889;28;20291;-71
2022/07/16 01:39:24;;;;;;;;;;;23.90;99.90;;;;;;5070034;28;19920;-70
2022/07/16 01:41:51;;;;;;;;;;;23.90;99.90;;;;;;5071576;28;19950;-70
2022/07/16 01:44:16;;;;;;;;;;;23.90;99.90;;;;;;5071248;28;19904;-71
2022/07/16 01:46:42;;;;;;;;;;;24.00;99.90;;;;;;5068966;28;20012;-71
2022/07/16 01:49:08;;;;;;;;;;;24.10;99.90;;;;;;5071205;28;20443;-71
2022/07/16 01:51:34;;;;;;;;;;;24.00;99.90;;;;;;5071645;28;19923;-71
2022/07/16 01:53:59;;;;;;;;;;;24.10;99.90;;;;;;5071231;28;20087;-71
2022/07/16 01:56:25;;;;;;;;;;;24.10;99.90;;;;;;5070942;28;19962;-71
2022/07/16 01:58:51;;;;;;;;;;;24.10;99.90;;;;;;5071258;28;20361;-70
2022/07/16 02:01:17;;;;;;;;;;;24.00;99.90;;;;;;5069826;28;19912;-69
2022/07/16 02:03:43;;;;;;;;;;;24.10;99.90;;;;;;5071583;28;20270;-71
2022/07/16 02:06:08;;;;;;;;;;;24.10;99.90;;;;;;5071341;28;19954;-71
2022/07/16 02:08:34;;;;;;;;;;;24.10;99.90;;;;;;5071008;28;19911;-71
2022/07/16 02:11:00;;;;;;;;;;;24.10;99.90;;;;;;5071389;28;19935;-70
2022/07/16 02:13:26;;;;;;;;;;;24.10;99.90;;;;;;5071425;28;19930;-70
2022/07/16 02:15:51;;;;;;;;;;;24.00;99.90;;;;;;5070508;28;19916;-71
2022/07/16 02:18:17;;;;;;;;;;;24.00;99.90;;;;;;5070374;28;20268;-70
2022/07/16 02:20:43;;;;;;;;;;;24.00;99.90;;;;;;5070092;28;19984;-70
2022/07/16 02:23:09;;;;;;;;;;;24.00;99.90;;;;;;5070128;28;19979;-71
2022/07/16 02:25:35;;;;;;;;;;;24.00;99.90;;;;;;5070116;28;20214;-71
2022/07/16 02:28:07;;;;;;;;;;;24.00;99.90;;;;;;5069925;28;19904;-70
2022/07/16 02:30:36;;;;;;;;;;;24.00;99.90;;;;;;5070388;28;20336;-71
2022/07/16 02:33:02;;;;;;;;;;;23.90;99.90;;;;;;5070119;28;20436;-71
2022/07/16 02:35:27;;;;;;;;;;;23.90;99.90;;;;;;5069876;28;19999;-70
2022/07/16 02:37:53;;;;;;;;;;;23.80;99.90;;;;;;5070040;28;19934;-71
2022/07/16 02:40:19;;;;;;;;;;;23.80;99.90;;;;;;5069814;28;19919;-71
2022/07/16 02:42:45;;;;;;;;;;;23.80;99.90;;;;;;5069874;28;19904;-70
2022/07/16 02:45:11;;;;;;;;;;;23.80;99.90;;;;;;5069806;28;19912;-71
2022/07/16 02:47:37;;;;;;;;;;;23.80;99.90;;;;;;5070077;28;20007;-71
2022/07/16 02:50:03;;;;;;;;;;;23.80;99.90;;;;;;5069633;28;20007;-71
2022/07/16 02:52:29;;;;;;;;;;;23.80;99.90;;;;;;5069751;28;19915;-70
2022/07/16 02:54:55;;;;;;;;;;;23.80;99.90;;;;;;5069598;28;19904;-71
2022/07/16 02:57:21;;;;;;;;;;;23.70;99.90;;;;;;5070247;28;19989;-71
2022/07/16 02:59:47;;;;;;;;;;;23.70;99.90;;;;;;5073129;28;19970;-71
2022/07/16 03:02:12;;;;;;;;;;;23.70;99.90;;;;;;5073161;28;19904;-70
2022/07/16 03:04:38;;;;;;;;;;;23.80;99.90;;;;;;5073048;28;19923;-71
2022/07/16 03:07:04;;;;;;;;;;;23.70;99.90;;;;;;5072477;28;19957;-71
2022/07/16 03:09:30;;;;;;;;;;;23.70;99.90;;;;;;5072989;28;19998;-70
2022/07/16 03:11:55;;;;;;;;;;;23.70;99.90;;;;;;5072968;28;19904;-71
2022/07/16 03:14:21;;;;;;;;;;;23.70;99.90;;;;;;5072966;28;20310;-71
2022/07/16 03:16:48;;;;;;;;;;;23.70;99.90;;;;;;4934544;28;3976962;-71
2022/07/16 03:19:14;;;;;;;;;;;23.60;99.90;;;;;;5074071;28;19908;-71
2022/07/16 03:21:40;;;;;;;;;;;23.60;99.90;;;;;;5074126;28;19987;-70
2022/07/16 03:24:06;;;;;;;;;;;23.70;99.90;;;;;;5074070;28;19908;-71
2022/07/16 03:26:32;;;;;;;;;;;23.60;99.90;;;;;;5073985;28;19904;-70
2022/07/16 03:28:57;;;;;;;;;;;23.60;99.90;;;;;;5072399;28;19951;-71
2022/07/16 03:31:23;;;;;;;;;;;23.60;99.90;;;;;;5073895;28;19912;-71
2022/07/16 03:33:49;;;;;;;;;;;23.60;99.90;;;;;;5074133;28;19904;-70
2022/07/16 03:36:15;;;;;;;;;;;23.60;99.90;;;;;;5072314;28;19943;-70
2022/07/16 03:41:25;;;;;;;;;;;23.50;99.90;;;;;;5073968;28;19959;-71
2022/07/16 03:43:51;;;;;;;;;;;23.50;99.90;;;;;;5073700;28;19934;-71
2022/07/16 03:46:17;;;;;;;;;;;23.50;99.90;;;;;;5073698;28;19905;-70
2022/07/16 03:48:43;;;;;;;;;;;23.50;99.90;;;;;;5073498;28;19915;-70
2022/07/16 03:51:09;;;;;;;;;;;23.60;99.90;;;;;;5073846;28;20337;-71
2022/07/16 03:53:35;;;;;;;;;;;23.60;99.90;;;;;;5073484;28;19916;-70
2022/07/16 03:56:02;;;;;;;;;;;23.60;99.90;;;;;;5073395;28;19930;-71
2022/07/16 03:58:28;;;;;;;;;;;23.60;99.90;;;;;;5105672;28;19908;-70
2022/07/16 04:00:54;;;;;;;;;;;23.60;99.90;;;;;;5073466;28;19905;-70
2022/07/16 04:03:20;;;;;;;;;;;23.60;99.90;;;;;;5073456;28;19999;-71
2022/07/16 04:05:45;;;;;;;;;;;23.60;99.90;;;;;;5073160;28;19947;-70
2022/07/16 04:08:11;;;;;;;;;;;23.50;99.90;;;;;;5105550;28;19904;-71
2022/07/16 04:10:37;;;;;;;;;;;23.50;99.90;;;;;;5072312;28;20019;-71
2022/07/16 04:13:03;;;;;;;;;;;23.50;99.90;;;;;;5105378;28;19912;-70
2022/07/16 04:15:29;;;;;;;;;;;23.50;99.90;;;;;;5072754;28;20003;-71
2022/07/16 04:17:55;;;;;;;;;;;23.50;99.90;;;;;;5071490;28;19909;-70
2022/07/16 04:20:20;;;;;;;;;;;23.60;99.90;;;;;;5072868;28;20003;-71
2022/07/16 04:22:46;;;;;;;;;;;23.50;99.90;;;;;;5105242;28;19967;-71
2022/07/16 04:25:15;;;;;;;;;;;23.60;99.90;;;;;;5073085;28;19964;-71
2022/07/16 04:27:44;;;;;;;;;;;23.60;99.90;;;;;;5072758;28;20044;-70
2022/07/16 04:30:10;;;;;;;;;;;23.60;99.90;;;;;;5072624;28;19938;-71
2022/07/16 04:32:37;;;;;;;;;;;23.70;99.90;;;;;;5072667;28;19997;-71
2022/07/16 04:35:03;;;;;;;;;;;23.70;99.90;;;;;;5072660;28;19904;-71
2022/07/16 04:37:29;;;;;;;;;;;23.70;99.90;;;;;;5071043;28;19904;-71
2022/07/16 04:39:54;;;;;;;;;;;23.80;99.90;;;;;;5071186;28;19904;-71
2022/07/16 04:42:20;;;;;;;;;;;23.80;99.90;;;;;;5072843;28;20270;-71
2022/07/16 04:44:46;;;;;;;;;;;23.80;99.90;;;;;;5072457;28;20210;-71
2022/07/16 04:47:12;;;;;;;;;;;23.80;99.90;;;;;;5072959;28;19958;-71
2022/07/16 04:49:38;;;;;;;;;;;23.80;99.90;;;;;;5072504;28;20018;-71
2022/07/16 04:52:04;;;;;;;;;;;23.80;99.90;;;;;;5072519;28;19904;-71
2022/07/16 04:54:30;;;;;;;;;;;23.90;99.90;;;;;;5072723;28;19904;-71
2022/07/16 04:56:55;;;;;;;;;;;24.00;99.90;;;;;;5072503;28;19911;-71
2022/07/16 04:59:21;;;;;;;;;;;24.00;99.90;;;;;;5072776;28;19927;-70
2022/07/16 05:01:48;;;;;;;;;;;24.10;99.90;;;;;;5072368;28;19908;-71
2022/07/16 05:04:13;;;;;;;;;;;24.10;99.90;;;;;;5072475;28;19911;-71
2022/07/16 05:06:39;;;;;;;;;;;24.10;99.90;;;;;;5072339;28;20003;-71
2022/07/16 05:09:05;;;;;;;;;;;24.20;99.90;;;;;;5072401;28;20357;-70
2022/07/16 05:11:31;;;;;;;;;;;24.80;99.90;;;;;;5072131;28;20002;-71
2022/07/16 05:13:57;;;;;;;;;;;25.80;99.90;;;;;;5072205;28;19904;-71
2022/07/16 05:16:23;;;;;;;;;;;27.00;99.90;;;;;;5071612;28;20257;-71
2022/07/16 05:18:49;;;;;;;;;;;27.90;99.90;;;;;;5104202;28;20014;-71
2022/07/16 05:21:15;;;;;;;;;;;28.70;99.90;;;;;;5072284;28;19962;-71
2022/07/16 05:23:41;;;;;;;;;;;29.70;98.40;;;;;;5072012;28;19904;-71
2022/07/16 05:26:07;;;;;;;;;;;30.70;96.70;;;;;;5072027;28;19905;-71
2022/07/16 05:28:33;;;;;;;;;;;31.60;95.00;;;;;;5071843;28;19904;-71
2022/07/16 05:30:59;;;;;;;;;;;33.00;92.00;;;;;;5071940;28;20364;-71
2022/07/16 05:33:25;;;;;;;;;;;32.40;91.20;;;;;;5071861;28;19962;-71
2022/07/16 05:35:51;;;;;;;;;;;32.10;91.40;;;;;;5071602;28;19908;-71
2022/07/16 05:38:17;;;;;;;;;;;32.30;91.10;;;;;;5072031;28;19905;-72
2022/07/16 05:40:43;;;;;;;;;;;33.70;88.90;;;;;;5071684;28;20286;-72
2022/07/16 05:43:09;;;;;;;;;;;34.80;85.90;;;;;;5071834;28;19950;-73
2022/07/16 05:45:35;;;;;;;;;;;35.70;82.70;;;;;;5072136;28;19992;-72
2022/07/16 05:48:01;;;;;;;;;;;36.20;80.70;;;;;;5071754;28;19965;-71
2022/07/16 05:50:27;;;;;;;;;;;36.70;78.60;;;;;;5071785;28;20015;-71
2022/07/16 05:52:53;;;;;;;;;;;37.20;77.20;;;;;;5071564;28;19926;-71
2022/07/16 05:55:19;;;;;;;;;;;38.20;75.70;;;;;;5071198;28;19905;-72
2022/07/16 05:57:45;;;;;;;;;;;39.70;72.10;;;;;;5071640;28;19905;-72
2022/07/16 06:00:12;;;;;;;;;;;41.10;69.30;;;;;;5072121;28;19997;-72
2022/07/16 06:02:38;;;;;;;;;;;41.80;66.60;;;;;;5071568;28;19919;-72
2022/07/16 06:05:04;;;;;;;;;;;42.60;64.80;;;;;;5071467;28;19966;-71
2022/07/16 06:07:30;;;;;;;;;;;43.40;62.80;;;;;;5071220;28;19904;-72
2022/07/16 06:09:56;;;;;;;;;;;44.40;60.90;;;;;;5071012;28;20353;-70
2022/07/16 06:12:22;;;;;;;;;;;44.90;59.20;;;;;;5071456;28;19958;-70
2022/07/16 06:14:47;;;;;;;;;;;45.60;57.40;;;;;;5070907;28;20364;-71
2022/07/16 06:17:13;;;;;;;;;;;45.90;56.60;;;;;;5070972;28;19919;-70
2022/07/16 06:19:41;;;;;;;;;;;46.50;56.00;;;;;;5071048;28;19904;-71
2022/07/16 06:22:07;;;;;;;;;;;46.70;55.30;;;;;;5070962;28;19943;-70
2022/07/16 06:24:33;;;;;;;;;;;46.20;54.50;;;;;;5071155;28;19923;-70
2022/07/16 06:26:59;;;;;;;;;;;46.40;54.10;;;;;;5071514;28;19904;-71
2022/07/16 06:29:25;;;;;;;;;;;46.30;53.90;;;;;;5071189;28;20003;-71
2022/07/16 06:31:50;;;;;;;;;;;46.60;53.50;;;;;;5071294;28;19908;-71
2022/07/16 06:34:16;;;;;;;;;;;46.10;54.00;;;;;;5074695;28;19911;-71
2022/07/16 06:36:42;;;;;;;;;;;46.70;53.60;;;;;;5074939;28;19905;-72
2022/07/16 06:39:08;;;;;;;;;;;46.40;52.80;;;;;;5075314;28;20351;-71
2022/07/16 06:41:35;;;;;;;;;;;45.50;53.70;;;;;;5074884;28;19911;-71
2022/07/16 06:44:01;;;;;;;;;;;45.60;53.60;;;;;;5075193;28;19964;-72
2022/07/16 06:46:27;;;;;;;;;;;43.90;53.60;;;;;;5074748;28;19916;-71
2022/07/16 06:48:52;;;;;;;;;;;45.10;54.00;;;;;;5074865;28;19905;-71
2022/07/16 06:51:18;;;;;;;;;;;46.10;52.90;;;;;;5075255;28;20356;-72
2022/07/16 06:53:44;;;;;;;;;;;46.10;52.60;;;;;;5074834;28;19904;-71
2022/07/16 06:56:10;;;;;;;;;;;46.30;52.40;;;;;;5074749;28;19955;-71
2022/07/16 06:58:36;;;;;;;;;;;46.70;51.80;;;;;;5074551;28;20263;-70
2022/07/16 07:01:02;;;;;;;;;;;46.10;51.60;;;;;;5074324;28;19904;-71
2022/07/16 07:03:28;;;;;;;;;;;46.70;52.70;;;;;;5074747;28;20238;-70
2022/07/16 07:05:54;;;;;;;;;;;46.50;52.30;;;;;;5073162;28;19904;-73
2022/07/16 07:08:20;;;;;;;;;;;46.70;52.30;;;;;;5074400;28;19905;-71
2022/07/16 07:10:46;;;;;;;;;;;46.20;53.00;;;;;;5074413;28;19958;-70
2022/07/16 07:13:11;;;;;;;;;;;46.90;53.00;;;;;;5074679;28;20073;-71
2022/07/16 07:15:37;;;;;;;;;;;46.80;52.70;;;;;;5074465;28;19943;-71
2022/07/16 07:18:03;;;;;;;;;;;45.30;54.30;;;;;;5074850;28;19950;-71
2022/07/16 07:20:29;;;;;;;;;;;45.50;54.70;;;;;;5074320;28;19912;-71
2022/07/16 07:22:55;;;;;;;;;;;44.90;55.40;;;;;;5074724;28;19904;-71
2022/07/16 07:25:21;;;;;;;;;;;44.20;56.10;;;;;;5074190;28;20011;-71
2022/07/16 07:27:47;;;;;;;;;;;43.60;57.30;;;;;;5074744;28;20218;-71
2022/07/16 07:30:13;;;;;;;;;;;42.90;57.90;;;;;;5074241;28;19956;-70
2022/07/16 07:32:39;;;;;;;;;;;41.90;58.50;;;;;;5074093;28;20383;-71
2022/07/16 07:35:06;;;;;;;;;;;40.40;60.90;;;;;;5073919;28;19904;-70
2022/07/16 07:37:32;;;;;;;;;;;39.50;62.40;;;;;;5073862;28;20310;-70
2022/07/16 07:39:57;;;;;;;;;;;38.30;64.50;;;;;;5072582;28;19924;-71
2022/07/16 07:42:23;;;;;;;;;;;38.00;65.20;;;;;;5074278;28;19988;-71
2022/07/16 07:44:49;;;;;;;;;;;37.30;66.70;;;;;;5074004;28;19904;-71
2022/07/16 07:47:15;;;;;;;;;;;36.50;67.40;;;;;;5073877;28;19911;-71
2022/07/16 07:49:41;;;;;;;;;;;36.30;67.90;;;;;;5074215;28;20368;-71
2022/07/16 07:52:08;;;;;;;;;;;36.10;69.30;;;;;;5074052;28;19908;-71
2022/07/16 07:54:34;;;;;;;;;;;36.40;69.50;;;;;;5073887;28;19912;-71
2022/07/16 07:57:00;;;;;;;;;;;36.10;69.00;;;;;;5074220;28;19904;-71
2022/07/16 07:59:26;;;;;;;;;;;35.90;69.10;;;;;;5073702;28;19911;-71
2022/07/16 08:01:52;;;;;;;;;;;35.70;69.30;;;;;;5073700;28;19905;-71
2022/07/16 08:04:18;;;;;;;;;;;35.30;69.80;;;;;;5074029;28;19961;-71
2022/07/16 08:06:44;;;;;;;;;;;34.90;71.10;;;;;;5073862;28;20011;-71
2022/07/16 08:09:10;;;;;;;;;;;35.00;72.00;;;;;;5073542;28;19912;-71
2022/07/16 08:11:36;;;;;;;;;;;34.80;71.80;;;;;;5073304;28;19931;-71
2022/07/16 08:14:02;;;;;;;;;;;34.80;71.80;;;;;;5073338;28;20305;-71
2022/07/16 08:16:28;;;;;;;;;;;35.00;70.80;;;;;;5073148;28;20531;-71
2022/07/16 08:18:54;;;;;;;;;;;35.20;71.20;;;;;;5073506;28;20006;-71
2022/07/16 08:21:19;;;;;;;;;;;35.00;71.20;;;;;;5073536;28;19904;-72
2022/07/16 08:26:30;;;;;;;;;;;35.50;70.60;;;;;;5073885;28;20311;-71
2022/07/16 08:28:55;;;;;;;;;;;35.70;70.40;;;;;;5073538;28;19905;-71
2022/07/16 08:31:21;;;;;;;;;;;35.40;68.70;;;;;;5071401;28;20003;-70
2022/07/16 08:33:47;;;;;;;;;;;35.10;70.20;;;;;;5072876;28;19957;-70
2022/07/16 08:36:13;;;;;;;;;;;35.40;69.50;;;;;;5073272;28;19995;-70
2022/07/16 08:38:39;;;;;;;;;;;35.50;68.90;;;;;;5072761;28;20026;-70
2022/07/16 08:41:05;;;;;;;;;;;35.20;68.00;;;;;;5073169;28;19904;-71
2022/07/16 08:43:31;;;;;;;;;;;35.40;68.60;;;;;;5072903;28;19904;-71
2022/07/16 08:45:57;;;;;;;;;;;35.30;68.40;;;;;;5072931;28;19904;-71
2022/07/16 08:48:24;;;;;;;;;;;35.50;67.60;;;;;;5073517;28;19914;-71
2022/07/16 08:50:52;;;;;;;;;;;35.40;67.80;;;;;;5072643;28;20385;-71
2022/07/16 08:53:19;;;;;;;;;;;35.50;68.00;;;;;;5072836;28;19923;-71
2022/07/16 08:55:46;;;;;;;;;;;35.50;66.60;;;;;;5072524;28;20370;-71
2022/07/16 08:58:12;;;;;;;;;;;34.80;68.20;;;;;;5105027;28;19905;-70
2022/07/16 09:00:39;;;;;;;;;;;34.60;68.40;;;;;;5072894;28;19915;-70
2022/07/16 09:03:04;;;;;;;;;;;34.50;68.30;;;;;;5072851;28;19920;-70
2022/07/16 09:05:30;;;;;;;;;;;34.40;67.80;;;;;;5072562;28;19992;-70
2022/07/16 09:07:56;;;;;;;;;;;34.30;68.40;;;;;;5072569;28;19958;-71
2022/07/16 09:10:32;;;;;;;;;;;34.00;68.70;;;;;;5072452;28;19912;-71
2022/07/16 09:12:58;;;;;;;;;;;34.30;67.60;;;;;;5072943;28;19904;-72
2022/07/16 09:15:30;;;;;;;;;;;34.50;68.10;;;;;;5071027;28;19908;-72
2022/07/16 09:18:08;;;;;;;;;;;34.50;68.10;;;;;;5072915;28;19927;-72
2022/07/16 09:20:34;;;;;;;;;;;34.60;67.40;;;;;;5072676;28;19904;-72
2022/07/16 09:23:00;;;;;;;;;;;34.00;68.20;;;;;;5072214;28;20379;-70
2022/07/16 09:25:26;;;;;;;;;;;34.00;69.50;;;;;;5072421;28;19904;-70
2022/07/16 09:28:00;;;;;;;;;;;34.30;68.70;;;;;;5072327;28;19904;-70
2022/07/16 09:30:27;;;;;;;;;;;34.10;69.50;;;;;;5071993;28;20015;-71
2022/07/16 09:32:53;;;;;;;;;;;33.90;70.80;;;;;;5072481;28;19904;-71
2022/07/16 09:35:19;;;;;;;;;;;33.70;70.20;;;;;;5072046;28;19938;-70
2022/07/16 09:37:49;;;;;;;;;;;33.40;71.60;;;;;;5071552;28;19905;-70
2022/07/16 09:40:15;;;;;;;;;;;33.00;74.70;;;;;;5071792;28;19911;-72
2022/07/16 09:42:41;;;;;;;;;;;33.10;75.60;;;;;;5072066;28;19911;-71
2022/07/16 09:45:08;;;;;;;;;;;33.10;75.70;;;;;;5071999;28;20264;-71
2022/07/16 09:47:34;;;;;;;;;;;32.90;76.80;;;;;;5071933;28;20395;-71
2022/07/16 09:50:01;;;;;;;;;;;32.60;76.30;;;;;;5071770;28;19914;-71
2022/07/16 09:52:35;;;;;;;;;;;32.40;77.40;;;;;;5071823;28;19904;-71
2022/07/16 09:55:01;;;;;;;;;;;32.30;76.40;;;;;;5072368;28;19908;-71
2022/07/16 09:57:28;;;;;;;;;;;32.30;77.00;;;;;;5071883;28;20007;-71
2022/07/16 09:59:55;;;;;;;;;;;32.30;76.70;;;;;;5071977;28;19904;-72
2022/07/16 10:02:21;;;;;;;;;;;32.40;78.20;;;;;;5071772;28;19904;-70
2022/07/16 10:04:47;;;;;;;;;;;32.50;77.10;;;;;;5071719;28;20333;-70
2022/07/16 10:07:13;;;;;;;;;;;32.20;75.30;;;;;;5072268;28;19904;-71
2022/07/16 10:09:39;;;;;;;;;;;32.30;77.50;;;;;;5076022;28;19923;-71
2022/07/16 10:12:08;;;;;;;;;;;32.30;76.50;;;;;;5074438;28;19911;-70
2022/07/16 10:14:40;;;;;;;;;;;32.00;77.60;;;;;;5107916;28;19905;-70
2022/07/16 10:17:13;;;;;;;;;;;32.30;77.10;;;;;;5075504;28;20309;-70
2022/07/16 10:19:40;;;;;;;;;;;32.60;75.20;;;;;;5075750;28;20272;-70
2022/07/16 10:22:15;;;;;;;;;;;32.60;74.10;;;;;;5075566;28;19947;-70
2022/07/16 10:24:44;;;;;;;;;;;32.70;73.50;;;;;;5075803;28;19904;-70
2022/07/16 10:27:36;;;;;;;;;;;32.70;72.80;;;;;;5075470;28;19904;-70
2022/07/16 10:30:09;;;;;;;;;;;32.60;73.00;;;;;;5103817;28;20003;-70
2022/07/16 10:32:53;;;;;;;;;;;32.30;72.10;;;;;;5075563;28;19912;-70
2022/07/16 10:35:29;;;;;;;;;;;32.20;72.50;;;;;;5075405;28;19976;-71
2022/07/16 10:38:04;;;;;;;;;;;32.10;71.20;;;;;;5075291;28;19908;-71
2022/07/16 10:40:30;;;;;;;;;;;32.10;71.60;;;;;;5075595;28;19911;-71
2022/07/16 10:43:15;;;;;;;;;;;32.10;72.00;;;;;;5075352;28;20003;-71
2022/07/16 10:45:52;;;;;;;;;;;32.10;71.60;;;;;;5074980;28;19904;-71
2022/07/16 10:48:19;;;;;;;;;;;32.00;70.20;;;;;;5074879;28;20348;-70
2022/07/16 10:51:03;;;;;;;;;;;32.10;69.50;;;;;;5074946;28;19922;-70
2022/07/16 10:53:49;;;;;;;;;;;32.10;70.80;;;;;;5074937;28;19952;-70
2022/07/16 10:56:33;;;;;;;;;;;32.10;69.50;;;;;;5074937;28;20253;-71
2022/07/16 10:59:00;;;;;;;;;;;32.20;70.00;;;;;;5075453;28;20022;-71
2022/07/16 11:01:26;;;;;;;;;;;32.30;69.50;;;;;;5073531;28;20408;-71
2022/07/16 11:03:52;;;;;;;;;;;32.50;67.70;;;;;;5074870;28;19946;-71
2022/07/16 11:06:20;;;;;;;;;;;32.50;67.60;;;;;;5074833;28;20064;-71
2022/07/16 11:08:46;;;;;;;;;;;32.10;68.40;;;;;;5074977;28;20287;-71
2022/07/16 11:11:12;;;;;;;;;;;32.20;69.70;;;;;;5074707;28;19923;-71
2022/07/16 11:13:37;;;;;;;;;;;32.00;70.00;;;;;;5075113;28;19904;-71
2022/07/16 11:16:07;;;;;;;;;;;32.00;72.80;;;;;;5074529;28;19920;-71
2022/07/16 11:18:39;;;;;;;;;;;32.10;71.90;;;;;;5106630;28;19911;-70
2022/07/16 11:21:05;;;;;;;;;;;32.10;71.70;;;;;;5074540;28;19922;-71
2022/07/16 11:23:46;;;;;;;;;;;32.00;70.00;;;;;;5074563;28;19943;-71
2022/07/16 11:26:11;;;;;;;;;;;31.90;71.10;;;;;;5074651;28;20315;-70
2022/07/16 11:28:49;;;;;;;;;;;32.10;70.90;;;;;;5074444;28;19908;-71
2022/07/16 11:31:14;;;;;;;;;;;32.10;71.30;;;;;;5074763;28;19982;-71
2022/07/16 11:33:41;;;;;;;;;;;32.30;70.30;;;;;;5074546;28;20349;-71
2022/07/16 11:36:09;;;;;;;;;;;32.50;69.80;;;;;;5074870;28;19912;-71
2022/07/16 11:38:35;;;;;;;;;;;32.50;68.30;;;;;;5074408;28;19904;-70
2022/07/16 11:41:01;;;;;;;;;;;32.20;68.90;;;;;;5074161;28;20341;-70
2022/07/16 11:43:28;;;;;;;;;;;32.20;69.90;;;;;;5074616;28;19939;-71
2022/07/16 11:45:54;;;;;;;;;;;32.40;69.60;;;;;;5074319;28;20268;-71
2022/07/16 11:48:20;;;;;;;;;;;32.60;68.70;;;;;;5073773;28;20358;-70
2022/07/16 11:50:46;;;;;;;;;;;32.50;66.20;;;;;;5072902;28;19934;-70
2022/07/16 11:53:12;;;;;;;;;;;32.50;66.30;;;;;;5074005;28;20021;-71
2022/07/16 11:55:42;;;;;;;;;;;32.30;67.20;;;;;;5074067;28;19991;-71
2022/07/16 11:58:08;;;;;;;;;;;32.40;67.30;;;;;;5074110;28;20371;-70
2022/07/16 12:00:48;;;;;;;;;;;32.50;66.90;;;;;;5073995;28;19906;-71
2022/07/16 12:03:14;;;;;;;;;;;32.50;68.70;;;;;;5074137;28;19904;-70
2022/07/16 12:05:40;;;;;;;;;;;32.60;68.10;;;;;;5073774;28;19910;-71
2022/07/16 12:08:10;;;;;;;;;;;32.70;67.90;;;;;;5073659;28;20070;-71
2022/07/16 12:10:36;;;;;;;;;;;32.50;67.50;;;;;;5074135;28;20332;-70
2022/07/16 12:13:02;;;;;;;;;;;32.50;69.70;;;;;;5073410;28;20008;-70
2022/07/16 12:15:28;;;;;;;;;;;32.70;68.00;;;;;;5073485;28;19909;-71
2022/07/16 12:17:54;;;;;;;;;;;32.80;68.30;;;;;;5073905;28;19904;-71
2022/07/16 12:20:22;;;;;;;;;;;32.60;69.80;;;;;;5073436;28;19909;-71
2022/07/16 12:23:10;;;;;;;;;;;32.60;70.80;;;;;;5072039;28;20284;-72
2022/07/16 12:25:38;;;;;;;;;;;32.60;69.80;;;;;;5106144;28;19912;-72
2022/07/16 12:28:21;;;;;;;;;;;32.70;71.30;;;;;;5073306;28;19911;-70
2022/07/16 12:30:51;;;;;;;;;;;32.70;70.50;;;;;;5072115;28;19916;-70
2022/07/16 12:33:23;;;;;;;;;;;32.80;72.50;;;;;;5073045;28;19904;-70
2022/07/16 12:35:50;;;;;;;;;;;32.90;70.70;;;;;;5073034;28;19904;-70
2022/07/16 12:38:36;;;;;;;;;;;32.90;70.80;;;;;;5073492;28;19923;-70
2022/07/16 12:41:02;;;;;;;;;;;33.00;70.40;;;;;;5073567;28;20352;-71
2022/07/16 12:43:28;;;;;;;;;;;33.00;69.20;;;;;;5073416;28;19940;-71
2022/07/16 12:45:54;;;;;;;;;;;32.90;70.90;;;;;;5073180;28;19904;-71
2022/07/16 12:48:20;;;;;;;;;;;32.90;72.60;;;;;;5071677;28;19966;-71
2022/07/16 12:50:46;;;;;;;;;;;32.80;71.70;;;;;;5073329;28;20300;-71
2022/07/16 12:53:11;;;;;;;;;;;33.00;72.00;;;;;;5072907;28;19904;-71
2022/07/16 13:01:06;;;;;;;;;;;33.30;70.30;;;;;;5072788;28;19910;-69
2022/07/16 13:03:32;;;;;;;;;;;33.30;70.20;;;;;;5071211;28;19908;-71
2022/07/16 13:05:58;;;;;;;;;;;33.30;67.80;;;;;;5073071;28;19983;-71
2022/07/16 13:08:24;;;;;;;;;;;33.20;65.40;;;;;;5073155;28;19904;-71
2022/07/16 13:10:50;;;;;;;;;;;33.10;66.40;;;;;;5072584;28;19965;-71
2022/07/16 13:13:16;;;;;;;;;;;33.20;64.40;;;;;;5072600;28;19905;-71
2022/07/16 13:15:42;;;;;;;;;;;33.20;63.90;;;;;;5072365;28;19958;-71
2022/07/16 13:18:08;;;;;;;;;;;33.10;62.10;;;;;;5072901;28;19904;-71
2022/07/16 13:20:33;;;;;;;;;;;33.10;60.50;;;;;;5072645;28;19911;-72
2022/07/16 13:22:59;;;;;;;;;;;33.00;59.90;;;;;;5072471;28;20015;-71
2022/07/16 13:25:25;;;;;;;;;;;33.20;61.10;;;;;;5072922;28;19904;-71
2022/07/16 13:27:52;;;;;;;;;;;33.30;61.80;;;;;;5072388;28;19909;-71
2022/07/16 13:30:18;;;;;;;;;;;33.50;59.80;;;;;;5072631;28;19912;-71
2022/07/16 13:32:44;;;;;;;;;;;33.60;58.60;;;;;;5072404;28;20014;-71
2022/07/16 13:35:10;;;;;;;;;;;33.60;57.80;;;;;;5072321;28;19909;-71
2022/07/16 13:37:36;;;;;;;;;;;33.40;57.80;;;;;;5072362;28;20003;-71
2022/07/16 13:40:03;;;;;;;;;;;33.50;57.90;;;;;;5072209;28;19905;-71
2022/07/16 13:42:28;;;;;;;;;;;33.40;59.80;;;;;;5072022;28;19904;-71
2022/07/16 13:44:54;;;;;;;;;;;33.30;59.10;;;;;;5072313;28;19904;-71
2022/07/16 13:47:20;;;;;;;;;;;33.30;59.90;;;;;;5072158;28;19984;-73
2022/07/16 13:49:46;;;;;;;;;;;33.50;58.30;;;;;;5072523;28;19994;-71
2022/07/16 13:52:12;;;;;;;;;;;33.60;58.10;;;;;;5072334;28;19909;-71
2022/07/16 13:54:37;;;;;;;;;;;33.30;60.10;;;;;;5072180;28;19905;-71
2022/07/16 13:59:47;;;;;;;;;;;33.10;63.40;;;;;;5072318;28;19989;-71
2022/07/16 14:02:13;;;;;;;;;;;33.10;64.50;;;;;;5071805;28;19924;-71
2022/07/16 14:04:39;;;;;;;;;;;33.30;63.00;;;;;;5071993;28;20261;-71
2022/07/16 14:07:05;;;;;;;;;;;33.30;65.90;;;;;;5072167;28;19953;-72
2022/07/16 14:09:31;;;;;;;;;;;33.10;68.00;;;;;;5070556;28;19926;-71
2022/07/16 14:11:56;;;;;;;;;;;33.10;68.70;;;;;;5072401;28;19908;-71
2022/07/16 14:14:22;;;;;;;;;;;33.10;70.20;;;;;;5071932;28;19958;-71
2022/07/16 14:16:48;;;;;;;;;;;33.20;70.00;;;;;;5071716;28;19926;-71
2022/07/16 14:19:14;;;;;;;;;;;32.80;69.40;;;;;;5072300;28;20332;-71
2022/07/16 14:21:43;;;;;;;;;;;32.70;70.00;;;;;;5071944;28;19985;-71
2022/07/16 14:24:12;;;;;;;;;;;32.70;72.10;;;;;;5071687;28;20411;-71
2022/07/16 14:26:39;;;;;;;;;;;32.80;72.80;;;;;;5071823;28;19985;-71
2022/07/16 14:29:05;;;;;;;;;;;33.00;71.90;;;;;;5072333;28;19909;-71
2022/07/16 14:31:31;;;;;;;;;;;32.90;71.50;;;;;;5071764;28;19959;-71